Time;durP1;ratioP1;P1;durP2;ratioP2;P2;SDS_P1;SDS_P2;PMS_P1;PMS_P2;Temp;Humidity;BMP_temperature;BMP_pressure;BME280_temperature;BME280_humidity;BME280_pressure;Samples;Min_cycle;Max_cycle;Signal;HPM_P1;HPM_P2
2022/08/15 00:01:36;;;;;;;7.88;7.28;;;23.40;99.90;;;;;;5053572;28;20206;-79
2022/08/15 00:04:05;;;;;;;8.40;7.70;;;23.40;99.90;;;;;;5053338;28;20205;-78
2022/08/15 00:06:35;;;;;;;8.10;7.40;;;23.40;99.90;;;;;;5033041;28;20197;-78
2022/08/15 00:09:05;;;;;;;8.20;7.50;;;23.30;99.90;;;;;;5034180;28;20206;-79
2022/08/15 00:11:35;;;;;;;8.00;7.40;;;23.30;99.90;;;;;;5033494;28;20226;-77
2022/08/15 00:14:08;;;;;;;8.63;7.82;;;23.20;99.90;;;;;;5032789;28;20198;-77
2022/08/15 00:16:37;;;;;;;7.95;7.35;;;23.20;99.90;;;;;;5040452;28;20289;-79
2022/08/15 00:19:08;;;;;;;7.90;7.30;;;23.10;99.90;;;;;;5053228;28;20376;-78
2022/08/15 00:21:37;;;;;;;7.85;7.18;;;23.10;99.90;;;;;;5052621;28;20285;-77
2022/08/15 00:24:04;;;;;;;8.32;7.65;;;23.00;99.90;;;;;;5053601;28;20226;-79
2022/08/15 00:26:32;;;;;;;7.25;6.70;;;23.00;99.90;;;;;;5044504;28;20289;-78
2022/08/15 00:28:59;;;;;;;7.90;7.30;;;23.00;99.90;;;;;;5033221;28;20240;-77
2022/08/15 00:31:28;;;;;;;8.50;7.80;;;22.90;99.90;;;;;;5033120;28;20205;-77
2022/08/15 00:33:54;;;;;;;7.85;7.25;;;22.90;99.90;;;;;;5041311;28;20202;-78
2022/08/15 00:36:21;;;;;;;7.57;6.97;;;22.90;99.90;;;;;;5052994;28;20226;-79
2022/08/15 00:38:48;;;;;;;7.80;7.20;;;22.80;99.90;;;;;;5052327;28;20218;-80
2022/08/15 00:44:02;;;;;;;8.23;7.57;;;22.80;99.90;;;;;;5049901;28;20628;-79
2022/08/15 00:46:30;;;;;;;9.02;8.30;;;22.70;99.90;;;;;;5032952;28;20283;-79
2022/08/15 00:48:58;;;;;;;8.90;8.20;;;22.70;99.90;;;;;;5031967;28;20226;-78
2022/08/15 00:51:30;;;;;;;8.70;8.00;;;22.70;99.90;;;;;;5033745;28;20194;-80
2022/08/15 00:54:02;;;;;;;8.70;8.00;;;22.60;99.90;;;;;;5052503;28;20197;-78
2022/08/15 00:56:34;;;;;;;8.70;8.00;;;22.60;99.90;;;;;;5052492;28;20182;-78
2022/08/15 00:59:03;;;;;;;8.32;7.72;;;22.50;99.90;;;;;;5052448;28;20218;-77
2022/08/15 01:01:32;;;;;;;9.50;8.73;;;22.50;99.90;;;;;;5038234;28;20209;-78
2022/08/15 01:03:59;;;;;;;8.35;7.65;;;22.40;99.90;;;;;;5042061;28;20206;-78
2022/08/15 01:06:26;;;;;;;9.02;8.32;;;22.40;99.90;;;;;;5052186;28;20333;-78
2022/08/15 01:08:53;;;;;;;8.70;8.02;;;22.30;99.90;;;;;;5049991;28;20285;-78
2022/08/15 01:11:26;;;;;;;8.88;8.18;;;22.30;99.90;;;;;;5032511;28;20898;-78
2022/08/15 01:13:59;;;;;;;8.70;8.00;;;22.20;99.90;;;;;;5034347;28;20209;-84
2022/08/15 01:16:28;;;;;;;9.15;8.30;;;22.20;99.90;;;;;;5034679;28;20295;-84
2022/08/15 01:18:57;;;;;;;8.98;8.18;;;22.10;99.90;;;;;;5033617;28;20225;-82
2022/08/15 01:21:29;;;;;;;9.75;8.82;;;22.10;99.90;;;;;;5035155;28;20187;-82
2022/08/15 01:24:07;;;;;;;9.45;8.65;;;22.10;99.90;;;;;;5033957;28;20503;-84
2022/08/15 01:26:37;;;;;;;9.70;8.90;;;22.00;99.90;;;;;;5034020;28;20194;-84
2022/08/15 01:29:04;;;;;;;10.13;9.30;;;22.00;99.90;;;;;;5032705;28;20195;-78
2022/08/15 01:31:31;;;;;;;10.18;9.27;;;22.00;99.90;;;;;;5031989;28;20216;-79
2022/08/15 01:34:00;;;;;;;8.82;8.18;;;21.90;99.90;;;;;;5034464;28;20202;-80
2022/08/15 01:36:29;;;;;;;8.07;7.43;;;21.90;99.90;;;;;;5052023;28;20221;-79
2022/08/15 01:39:03;;;;;;;8.68;7.97;;;21.90;99.90;;;;;;5051640;28;20254;-80
2022/08/15 01:41:35;;;;;;;9.90;9.10;;;21.90;99.90;;;;;;5052155;28;20200;-80
2022/08/15 01:44:14;;;;;;;9.75;8.77;;;21.80;99.90;;;;;;5037800;28;20206;-85
2022/08/15 01:46:48;;;;;;;9.90;9.10;;;21.80;99.90;;;;;;5034053;28;20190;-83
2022/08/15 01:49:21;;;;;;;9.32;8.50;;;21.80;99.90;;;;;;5039811;28;20201;-84
2022/08/15 01:51:51;;;;;;;8.88;8.18;;;21.70;99.90;;;;;;5053707;28;20190;-84
2022/08/15 01:54:18;;;;;;;9.45;8.55;;;21.70;99.90;;;;;;5053565;28;20200;-85
2022/08/15 01:56:47;;;;;;;10.35;9.45;;;21.70;99.90;;;;;;5051557;28;20316;-81
2022/08/15 01:59:18;;;;;;;9.88;9.02;;;21.60;99.90;;;;;;5052239;28;20221;-85
2022/08/15 02:01:49;;;;;;;10.10;9.25;;;21.60;99.90;;;;;;5053915;28;20186;-85
2022/08/15 02:04:18;;;;;;;9.80;8.98;;;21.60;99.90;;;;;;5054029;28;20194;-85
2022/08/15 02:06:46;;;;;;;10.00;9.20;;;21.50;99.90;;;;;;5033495;28;20199;-80
2022/08/15 02:09:16;;;;;;;9.73;8.93;;;21.50;99.90;;;;;;5033138;28;20201;-86
2022/08/15 02:11:44;;;;;;;10.40;9.45;;;21.50;99.90;;;;;;5034385;28;20195;-85
2022/08/15 02:14:12;;;;;;;10.18;9.20;;;21.50;99.90;;;;;;5034057;28;20202;-84
2022/08/15 02:16:42;;;;;;;10.77;9.80;;;21.50;99.90;;;;;;5044565;28;20536;-84
2022/08/15 02:19:12;;;;;;;10.05;9.25;;;21.50;99.90;;;;;;5057850;28;20236;-83
2022/08/15 02:21:42;;;;;;;11.13;10.13;;;21.50;99.90;;;;;;5057684;28;20268;-82
2022/08/15 02:24:11;;;;;;;11.48;10.48;;;21.50;99.90;;;;;;5057935;28;20471;-86
2022/08/15 02:26:38;;;;;;;11.50;10.50;;;21.50;99.90;;;;;;5039342;28;20233;-85
2022/08/15 02:29:06;;;;;;;10.57;9.70;;;21.50;99.90;;;;;;5038154;28;20308;-85
2022/08/15 02:31:34;;;;;;;12.40;11.40;;;21.50;99.90;;;;;;5037776;28;20194;-88
2022/08/15 02:34:04;;;;;;;11.95;10.95;;;21.50;99.90;;;;;;5043480;28;20587;-85
2022/08/15 02:36:35;;;;;;;12.05;10.85;;;21.50;99.90;;;;;;5058468;28;20281;-87
2022/08/15 02:39:07;;;;;;;12.75;11.68;;;21.50;99.90;;;;;;5057969;28;20229;-86
2022/08/15 02:41:37;;;;;;;12.05;11.05;;;21.50;99.90;;;;;;5058234;28;20194;-84
2022/08/15 02:44:05;;;;;;;11.40;10.40;;;21.50;99.90;;;;;;5058421;28;20344;-85
2022/08/15 02:46:32;;;;;;;11.40;10.50;;;21.60;99.90;;;;;;5054254;28;20218;-86
2022/08/15 02:49:01;;;;;;;12.60;11.57;;;21.60;99.90;;;;;;5037365;28;20209;-86
2022/08/15 02:51:30;;;;;;;11.52;10.60;;;21.60;99.90;;;;;;5037326;28;20199;-85
2022/08/15 02:53:58;;;;;;;10.63;9.82;;;21.60;99.90;;;;;;5036963;28;20206;-86
2022/08/15 02:56:27;;;;;;;12.80;11.60;;;21.60;99.90;;;;;;5051641;28;20263;-86
2022/08/15 02:58:54;;;;;;;10.13;9.30;;;21.60;99.90;;;;;;5057439;28;20309;-80
2022/08/15 03:01:23;;;;;;;10.52;9.63;;;21.60;99.90;;;;;;5037216;28;20749;-86
2022/08/15 03:03:54;;;;;;;10.30;9.40;;;21.60;99.90;;;;;;5044874;28;20225;-85
2022/08/15 03:06:26;;;;;;;9.98;9.18;;;21.60;99.90;;;;;;5057417;28;20193;-86
2022/08/15 03:09:00;;;;;;;10.43;9.63;;;21.60;99.90;;;;;;5056901;28;20308;-86
2022/08/15 03:11:27;;;;;;;9.98;9.27;;;21.60;99.90;;;;;;5057303;28;20277;-85
2022/08/15 03:13:54;;;;;;;11.32;10.43;;;21.60;99.90;;;;;;5055433;28;20206;-85
2022/08/15 03:16:21;;;;;;;10.85;9.80;;;21.60;99.90;;;;;;5055105;28;20206;-82
2022/08/15 03:18:49;;;;;;;10.55;9.75;;;21.60;99.90;;;;;;5054800;28;20253;-79
2022/08/15 03:21:19;;;;;;;11.23;10.25;;;21.60;99.90;;;;;;5054100;28;20670;-79
2022/08/15 03:23:49;;;;;;;12.20;11.20;;;21.60;99.90;;;;;;5053920;28;20190;-79
2022/08/15 03:26:19;;;;;;;10.45;9.55;;;21.60;99.90;;;;;;5054535;28;20182;-79
2022/08/15 03:28:46;;;;;;;11.13;10.20;;;21.60;99.90;;;;;;5044508;28;20202;-80
2022/08/15 03:31:14;;;;;;;11.23;10.27;;;21.70;99.90;;;;;;5033946;28;20210;-79
2022/08/15 03:33:44;;;;;;;9.68;8.75;;;21.70;99.90;;;;;;5046272;28;20201;-79
2022/08/15 03:36:12;;;;;;;9.95;9.15;;;21.70;99.90;;;;;;5051052;28;21113;-79
2022/08/15 03:38:39;;;;;;;10.02;9.23;;;21.70;99.90;;;;;;5034326;28;20241;-79
2022/08/15 03:41:09;;;;;;;10.20;9.30;;;21.70;99.90;;;;;;5034666;28;20213;-81
2022/08/15 03:43:38;;;;;;;11.57;10.63;;;21.80;99.90;;;;;;5034545;28;20217;-80
2022/08/15 03:46:07;;;;;;;11.98;10.82;;;21.80;99.90;;;;;;5034366;28;20250;-81
2022/08/15 03:48:39;;;;;;;11.07;10.15;;;21.80;99.90;;;;;;5034598;28;20202;-81
2022/08/15 03:51:08;;;;;;;10.90;10.00;;;21.80;99.90;;;;;;5053299;28;20210;-79
2022/08/15 03:53:37;;;;;;;12.75;11.52;;;21.80;99.90;;;;;;5043374;28;20206;-80
2022/08/15 03:56:05;;;;;;;11.27;10.30;;;21.90;99.90;;;;;;5034576;28;20289;-79
2022/08/15 03:58:33;;;;;;;10.75;9.85;;;21.90;99.90;;;;;;5033934;28;20625;-81
2022/08/15 04:01:01;;;;;;;10.48;9.63;;;21.90;99.90;;;;;;5034557;28;20490;-80
2022/08/15 04:03:30;;;;;;;12.93;11.82;;;21.90;99.90;;;;;;5034083;28;20199;-81
2022/08/15 04:06:00;;;;;;;10.98;10.07;;;22.00;99.90;;;;;;5033564;28;20598;-80
2022/08/15 04:08:30;;;;;;;10.85;9.95;;;22.00;99.90;;;;;;5034270;28;20187;-80
2022/08/15 04:10:58;;;;;;;11.10;10.10;;;22.00;99.90;;;;;;5038761;28;20249;-81
2022/08/15 04:13:26;;;;;;;10.05;9.23;;;22.00;99.90;;;;;;5053322;28;20208;-82
2022/08/15 04:15:55;;;;;;;11.85;10.82;;;22.00;99.90;;;;;;5054259;28;20190;-81
2022/08/15 04:18:24;;;;;;;12.15;11.05;;;22.00;99.90;;;;;;5053571;28;20191;-81
2022/08/15 04:20:51;;;;;;;11.60;10.48;;;22.00;99.90;;;;;;5054095;28;20280;-83
2022/08/15 04:23:18;;;;;;;10.98;10.07;;;22.00;99.90;;;;;;5054138;28;20586;-80
2022/08/15 04:25:45;;;;;;;9.63;8.82;;;22.00;99.90;;;;;;5052675;28;20588;-80
2022/08/15 04:28:15;;;;;;;10.07;9.20;;;22.00;99.90;;;;;;5052940;28;20233;-83
2022/08/15 04:30:45;;;;;;;12.30;11.30;;;22.00;99.90;;;;;;5045997;28;20214;-80
2022/08/15 04:33:15;;;;;;;13.55;12.45;;;22.00;99.90;;;;;;5032599;28;20602;-80
2022/08/15 04:35:47;;;;;;;12.43;11.32;;;22.00;99.90;;;;;;5052374;28;20225;-79
2022/08/15 04:38:14;;;;;;;12.02;11.02;;;22.00;99.90;;;;;;5052731;28;20259;-81
2022/08/15 04:40:42;;;;;;;12.85;11.65;;;22.00;99.90;;;;;;5052772;28;20221;-79
2022/08/15 04:43:10;;;;;;;12.85;11.75;;;22.00;99.90;;;;;;5052692;28;20198;-81
2022/08/15 04:45:39;;;;;;;11.55;10.55;;;22.10;99.90;;;;;;5052591;28;20225;-79
2022/08/15 04:48:06;;;;;;;15.00;13.50;;;22.00;99.90;;;;;;5052118;28;20198;-80
2022/08/15 04:50:35;;;;;;;13.10;11.85;;;22.10;99.90;;;;;;5052959;28;20206;-80
2022/08/15 04:53:04;;;;;;;11.63;10.63;;;22.10;99.90;;;;;;5053206;28;20235;-79
2022/08/15 04:55:31;;;;;;;11.57;10.48;;;22.10;99.90;;;;;;5036262;28;20202;-79
2022/08/15 04:57:59;;;;;;;14.82;13.52;;;22.10;99.90;;;;;;5033125;28;20203;-79
2022/08/15 05:00:30;;;;;;;13.70;12.50;;;22.20;99.90;;;;;;5032849;28;20228;-82
2022/08/15 05:02:59;;;;;;;12.90;11.80;;;22.20;99.90;;;;;;5052482;28;20198;-79
2022/08/15 05:05:26;;;;;;;14.63;13.23;;;22.10;99.90;;;;;;5052464;28;20202;-79
2022/08/15 05:07:53;;;;;;;13.13;12.02;;;22.10;99.90;;;;;;5051844;28;20194;-78
2022/08/15 05:10:21;;;;;;;15.13;13.70;;;22.10;99.90;;;;;;5046151;28;20195;-78
2022/08/15 05:12:48;;;;;;;15.35;13.60;;;22.10;99.90;;;;;;5032750;28;20210;-80
2022/08/15 05:15:17;;;;;;;14.57;13.27;;;22.20;99.90;;;;;;5032272;28;20202;-81
2022/08/15 05:17:45;;;;;;;15.05;12.25;;;22.20;99.90;;;;;;5032849;28;20286;-82
2022/08/15 05:20:13;;;;;;;12.80;9.70;;;22.30;99.90;;;;;;5032560;28;20226;-80
2022/08/15 05:22:53;;;;;;;10.77;9.38;;;22.30;99.90;;;;;;5031942;28;20194;-80
2022/08/15 05:25:22;;;;;;;11.00;9.60;;;22.30;99.90;;;;;;5033411;28;20197;-79
2022/08/15 05:27:48;;;;;;;8.73;7.93;;;22.30;99.90;;;;;;5032522;28;20230;-79
2022/08/15 05:30:16;;;;;;;8.75;7.85;;;22.30;99.90;;;;;;5032030;28;20202;-79
2022/08/15 05:32:43;;;;;;;9.65;7.30;;;22.30;99.90;;;;;;5031940;28;20206;-78
2022/08/15 05:35:10;;;;;;;10.15;5.93;;;22.30;99.90;;;;;;5032255;28;20226;-79
2022/08/15 05:37:37;;;;;;;7.10;6.25;;;22.40;99.90;;;;;;5031416;28;20209;-78
2022/08/15 05:40:05;;;;;;;11.48;5.82;;;22.40;99.90;;;;;;5033287;28;20314;-78
2022/08/15 05:42:41;;;;;;;8.93;5.88;;;22.40;99.00;;;;;;5052477;28;20222;-80
2022/08/15 05:45:14;;;;;;;11.98;5.40;;;22.40;92.20;;;;;;5042275;28;20220;-79
2022/08/15 05:47:45;;;;;;;7.95;4.85;;;22.50;90.00;;;;;;5032528;28;20287;-79
2022/08/15 05:50:15;;;;;;;7.00;4.70;;;22.60;69.60;;;;;;5031938;28;20202;-81
2022/08/15 05:52:49;;;;;;;9.05;4.60;;;22.60;53.10;;;;;;5031921;28;20237;-81
2022/08/15 05:55:23;;;;;;;7.80;4.68;;;22.60;58.80;;;;;;5034667;28;20280;-80
2022/08/15 05:58:09;;;;;;;7.10;4.82;;;22.60;88.70;;;;;;5051553;28;20218;-80
2022/08/15 06:00:38;;;;;;;13.70;5.70;;;22.60;99.90;;;;;;5051885;28;20610;-81
2022/08/15 06:03:11;;;;;;;8.25;4.60;;;22.70;99.90;;;;;;5050070;28;20204;-79
2022/08/15 06:05:44;;;;;;;8.50;4.72;;;22.70;99.90;;;;;;5036547;28;20663;-79
2022/08/15 06:08:15;;;;;;;7.15;4.63;;;22.70;99.90;;;;;;5036322;28;20230;-78
2022/08/15 06:10:47;;;;;;;10.35;5.32;;;22.70;99.90;;;;;;5032938;28;20191;-80
2022/08/15 06:13:21;;;;;;;9.80;5.57;;;22.70;99.90;;;;;;5042118;28;20590;-82
2022/08/15 06:15:53;;;;;;;9.55;5.50;;;22.70;99.90;;;;;;5033881;28;20215;-79
2022/08/15 06:18:21;;;;;;;8.77;4.93;;;22.70;99.90;;;;;;5032760;28;20206;-79
2022/08/15 06:20:56;;;;;;;5.68;4.45;;;22.70;99.90;;;;;;5032030;28;20277;-80
2022/08/15 06:23:33;;;;;;;6.65;3.90;;;22.70;99.90;;;;;;5032078;28;20202;-78
2022/08/15 06:26:13;;;;;;;7.90;4.72;;;22.70;99.90;;;;;;5031437;28;20206;-79
2022/08/15 06:28:59;;;;;;;5.97;3.90;;;22.70;99.90;;;;;;5032413;28;20607;-80
2022/08/15 06:31:31;;;;;;;5.20;3.28;;;22.60;99.90;;;;;;5032200;28;20512;-81
2022/08/15 06:34:09;;;;;;;5.38;3.33;;;22.70;78.00;;;;;;5031953;28;20203;-82
2022/08/15 06:36:42;;;;;;;5.45;3.20;;;22.60;47.90;;;;;;5034440;28;20217;-80
2022/08/15 06:39:16;;;;;;;4.28;3.00;;;22.60;21.50;;;;;;5045047;28;20216;-82
2022/08/15 06:41:51;;;;;;;4.95;2.92;;;22.60;1.00;;;;;;5051442;23;20240;-84
2022/08/15 06:44:20;;;;;;;3.70;2.53;;;22.60;1.00;;;;;;5024289;28;20202;-81
2022/08/15 06:46:49;;;;;;;6.57;3.08;;;22.60;1.00;;;;;;5021189;28;20198;-79
2022/08/15 06:49:19;;;;;;;7.10;3.42;;;22.70;1.00;;;;;;5031212;28;20206;-84
2022/08/15 06:51:47;;;;;;;6.13;3.20;;;22.70;1.00;;;;;;5032663;28;20195;-83
2022/08/15 06:54:18;;;;;;;4.78;3.17;;;22.80;99.90;;;;;;5019052;28;20227;-84
2022/08/15 06:56:51;;;;;;;5.55;3.72;;;22.80;99.90;;;;;;5013246;28;20199;-83
2022/08/15 06:59:27;;;;;;;6.13;3.65;;;22.90;1.00;;;;;;5013567;28;20200;-82
2022/08/15 07:02:01;;;;;;;8.75;3.58;;;22.90;99.90;;;;;;5022887;28;20513;-84
2022/08/15 07:04:40;;;;;;;5.15;3.25;;;23.00;1.00;;;;;;5036046;28;20198;-82
2022/08/15 07:07:13;;;;;;;5.05;2.88;;;23.10;1.00;;;;;;5035917;28;20304;-83
2022/08/15 07:09:47;;;;;;;4.63;3.30;;;23.20;1.00;;;;;;5034140;28;20313;-83
2022/08/15 07:12:23;;;;;;;7.68;3.42;;;23.30;99.90;;;;;;5032919;28;20205;-85
2022/08/15 07:14:59;;;;;;;7.32;3.55;;;23.40;1.00;;;;;;5037798;28;20268;-85
2022/08/15 07:17:31;;;;;;;4.65;3.13;;;23.40;99.90;;;;;;5033408;28;20211;-84
2022/08/15 07:19:58;;;;;;;3.58;3.00;;;23.60;3.00;;;;;;5033648;28;20289;-84
2022/08/15 07:22:26;;;;;;;4.75;3.42;;;23.70;1.00;;;;;;5031078;28;20642;-85
2022/08/15 07:24:55;;;;;;;4.15;3.35;;;23.80;1.00;;;;;;5034648;28;20210;-84
2022/08/15 07:27:28;;;;;;;4.15;3.30;;;23.90;1.00;;;;;;5031903;28;20248;-84
2022/08/15 07:30:06;;;;;;;4.85;3.20;;;24.10;1.00;;;;;;5029102;28;20194;-85
2022/08/15 07:32:48;;;;;;;5.72;3.88;;;24.30;1.00;;;;;;5026740;28;20214;-87
2022/08/15 07:35:24;;;;;;;5.80;3.10;;;24.40;1.00;;;;;;5021238;28;20225;-84
2022/08/15 07:37:56;;;;;;;5.03;3.58;;;24.50;99.90;;;;;;5034937;28;20515;-83
2022/08/15 07:40:27;;;;;;;5.47;3.72;;;24.50;87.50;;;;;;5035588;28;20206;-81
2022/08/15 07:42:55;;;;;;;5.25;3.75;;;24.50;99.90;;;;;;5034826;28;20320;-81
2022/08/15 07:45:31;;;;;;;4.45;3.10;;;24.50;1.00;;;;;;5042288;28;20206;-81
2022/08/15 07:48:01;;;;;;;6.18;3.20;;;24.60;1.00;;;;;;5037005;28;20201;-80
2022/08/15 07:50:35;;;;;;;6.22;3.80;;;24.70;99.90;;;;;;5038958;28;20261;-82
2022/08/15 07:53:12;;;;;;;5.55;3.47;;;24.70;1.00;;;;;;5054726;28;20220;-82
2022/08/15 07:55:39;;;;;;;4.38;3.65;;;24.90;16.60;;;;;;5059775;28;20209;-83
2022/08/15 07:58:15;;;;;;;5.28;3.65;;;25.30;99.90;;;;;;5056510;28;20194;-83
2022/08/15 08:00:52;;;;;;;7.07;3.67;;;25.80;99.90;;;;;;5063859;28;20266;-82
2022/08/15 08:03:24;;;;;;;4.93;3.50;;;26.30;2.60;;;;;;5071856;28;20212;-82
2022/08/15 08:05:57;;;;;;;6.82;4.35;;;26.60;1.00;;;;;;5067813;28;20194;-81
2022/08/15 08:08:31;;;;;;;6.95;3.60;;;27.00;1.00;;;;;;5054888;28;20198;-83
2022/08/15 08:11:04;;;;;;;5.88;3.80;;;27.30;1.00;;;;;;5054161;28;20221;-81
2022/08/15 08:13:42;;;;;;;4.78;3.25;;;27.50;99.90;;;;;;5054225;28;20198;-83
2022/08/15 08:16:34;;;;;;;5.05;3.25;;;27.80;99.90;;;;;;5053666;28;20292;-81
2022/08/15 08:19:07;;;;;;;5.03;4.10;;;28.10;99.90;;;;;;5053180;28;20239;-81
2022/08/15 08:21:41;;;;;;;6.70;4.03;;;28.40;99.90;;;;;;5053541;28;20495;-81
2022/08/15 08:24:25;;;;;;;6.90;4.32;;;28.70;99.90;;;;;;5053438;28;20204;-82
2022/08/15 08:27:00;;;;;;;5.82;4.25;;;28.90;99.90;;;;;;5053490;28;20220;-83
2022/08/15 08:29:35;;;;;;;4.90;3.42;;;29.20;99.90;;;;;;5053836;28;20216;-83
2022/08/15 08:32:17;;;;;;;5.63;3.60;;;29.60;99.90;;;;;;5033334;28;20204;-83
2022/08/15 08:34:53;;;;;;;4.22;3.17;;;29.70;99.90;;;;;;5053589;28;20289;-82
2022/08/15 08:37:26;;;;;;;6.65;3.78;;;29.70;99.90;;;;;;5060276;28;20189;-82
2022/08/15 08:41:24;;;;;;;5.95;3.60;;;29.60;99.90;;;;;;5054322;28;20186;-82
2022/08/15 08:42:50;;;;;;;5.57;3.35;;;29.50;99.90;;;;;;5052610;28;20260;-82
2022/08/15 08:45:23;;;;;;;4.80;3.38;;;29.20;99.90;;;;;;5053019;28;20178;-83
2022/08/15 08:48:11;;;;;;;4.90;3.13;;;29.10;99.90;;;;;;5052004;28;20205;-83
2022/08/15 08:50:44;;;;;;;5.55;3.55;;;28.80;99.90;;;;;;5033376;28;20214;-83
2022/08/15 08:53:22;;;;;;;7.18;3.70;;;28.70;99.90;;;;;;5032715;28;20293;-82
2022/08/15 08:55:55;;;;;;;5.68;3.22;;;28.60;99.90;;;;;;5036352;28;20245;-81
2022/08/15 08:58:31;;;;;;;6.63;3.45;;;28.50;99.90;;;;;;5072322;28;20596;-81
2022/08/15 09:00:59;;;;;;;5.18;3.67;;;28.40;99.90;;;;;;5071758;28;20247;-82
2022/08/15 09:03:34;;;;;;;5.30;3.53;;;28.30;99.90;;;;;;5047587;28;20306;-83
2022/08/15 09:06:01;;;;;;;6.45;4.13;;;28.30;99.90;;;;;;5062306;28;20224;-86
2022/08/15 09:08:33;;;;;;;5.13;4.18;;;28.30;99.90;;;;;;5051637;28;20611;-82
2022/08/15 09:11:05;;;;;;;4.45;3.80;;;28.20;99.90;;;;;;5052846;28;20224;-82
2022/08/15 09:13:35;;;;;;;6.07;3.40;;;28.10;99.90;;;;;;5052555;28;20205;-82
2022/08/15 09:16:08;;;;;;;4.20;3.40;;;28.10;99.90;;;;;;5052355;28;20201;-84
2022/08/15 09:18:44;;;;;;;5.20;3.50;;;28.10;99.90;;;;;;5052998;28;20467;-82
2022/08/15 09:21:12;;;;;;;4.35;3.33;;;28.10;99.90;;;;;;5051960;28;20225;-82
2022/08/15 09:23:43;;;;;;;3.83;3.28;;;28.10;99.90;;;;;;5053054;28;20198;-82
2022/08/15 09:26:15;;;;;;;4.10;3.70;;;28.10;99.90;;;;;;5052883;28;20193;-84
2022/08/15 09:28:44;;;;;;;3.53;3.10;;;28.10;99.90;;;;;;5050813;28;20267;-84
2022/08/15 09:31:15;;;;;;;3.75;3.45;;;28.20;99.90;;;;;;5049842;28;20205;-84
2022/08/15 09:34:22;;;;;;;5.60;3.30;;;28.20;99.90;;;;;;5034463;28;20198;-84
2022/08/15 09:37:17;;;;;;;5.32;3.20;;;28.10;99.90;;;;;;5024643;28;20306;-84
2022/08/15 09:40:25;;;;;;;3.95;3.20;;;28.10;99.90;;;;;;5033162;28;20199;-83
2022/08/15 09:43:10;;;;;;;3.35;3.05;;;27.90;99.90;;;;;;5027103;28;20298;-82
2022/08/15 09:45:52;;;;;;;3.95;3.65;;;27.90;99.90;;;;;;5054052;28;20706;-83
2022/08/15 09:48:56;;;;;;;3.92;3.60;;;27.70;99.90;;;;;;5049946;28;20209;-83
2022/08/15 09:51:57;;;;;;;3.92;3.33;;;27.60;99.90;;;;;;4992876;28;20209;-86
2022/08/15 09:54:28;;;;;;;4.43;3.67;;;27.50;99.90;;;;;;5034037;28;20604;-86
2022/08/15 09:57:20;;;;;;;4.55;3.95;;;27.40;99.90;;;;;;5050630;28;20201;-88
2022/08/15 09:59:51;;;;;;;6.82;4.50;;;27.30;99.90;;;;;;5053687;28;20281;-86
2022/08/15 10:02:22;;;;;;;5.03;3.97;;;27.30;99.90;;;;;;5055099;28;20301;-86
2022/08/15 10:05:09;;;;;;;7.40;3.92;;;27.40;99.90;;;;;;5053509;28;20202;-88
2022/08/15 10:07:55;;;;;;;7.15;4.70;;;27.60;99.90;;;;;;5053488;28;20499;-85
2022/08/15 10:10:26;;;;;;;7.72;4.68;;;27.80;99.90;;;;;;5053254;28;20917;-86
2022/08/15 10:13:11;;;;;;;6.78;4.90;;;28.00;99.90;;;;;;5053434;28;20202;-87
2022/08/15 10:15:41;;;;;;;8.40;5.28;;;28.20;99.90;;;;;;5054530;28;20182;-89
2022/08/15 10:18:09;;;;;;;11.60;5.30;;;28.30;99.90;;;;;;5045777;28;20203;-84
2022/08/15 10:21:18;;;;;;;12.07;6.10;;;28.30;99.90;;;;;;5033749;28;20230;-88
2022/08/15 10:23:49;;;;;;;10.23;6.43;;;28.20;99.90;;;;;;4994827;28;20198;-86
2022/08/15 10:26:24;;;;;;;11.73;6.80;;;28.10;99.90;;;;;;5034403;28;20206;-84
2022/08/15 10:29:24;;;;;;;11.00;6.22;;;28.10;99.90;;;;;;5034605;28;20557;-87
2022/08/15 10:31:54;;;;;;;11.98;6.75;;;28.10;99.90;;;;;;5047479;23;20259;-88
2022/08/15 10:34:52;;;;;;;10.50;6.72;;;27.90;99.90;;;;;;5074427;28;20232;-88
2022/08/15 10:37:22;;;;;;;8.52;6.05;;;28.00;99.90;;;;;;5053204;28;20248;-87
2022/08/15 10:40:28;;;;;;;8.65;5.93;;;28.20;99.90;;;;;;5057348;28;20201;-90
2022/08/15 10:43:17;;;;;;;10.93;6.28;;;28.60;99.90;;;;;;5037324;28;20225;-87
2022/08/15 10:45:48;;;;;;;9.15;6.82;;;28.80;99.90;;;;;;5057451;28;20213;-86
2022/08/15 10:48:30;;;;;;;7.07;5.50;;;28.90;99.90;;;;;;5057381;28;20202;-86
2022/08/15 10:51:03;;;;;;;5.70;5.03;;;28.90;99.90;;;;;;5057238;28;20236;-88
2022/08/15 10:53:47;;;;;;;9.90;6.70;;;29.00;99.90;;;;;;5057543;28;20277;-87
2022/08/15 10:56:17;;;;;;;7.55;5.25;;;28.90;99.90;;;;;;5057555;28;20616;-83
2022/08/15 10:58:46;;;;;;;7.65;5.90;;;29.10;99.90;;;;;;5057351;28;20197;-87
2022/08/15 11:01:20;;;;;;;6.20;5.53;;;29.20;99.90;;;;;;5057446;28;20214;-86
2022/08/15 11:03:51;;;;;;;7.32;5.55;;;29.50;99.90;;;;;;5048645;28;20208;-85
2022/08/15 11:06:22;;;;;;;8.23;5.35;;;29.60;99.90;;;;;;5037661;28;20294;-86
2022/08/15 11:08:51;;;;;;;11.02;7.18;;;29.70;99.90;;;;;;5037465;28;20218;-85
2022/08/15 11:11:22;;;;;;;10.57;6.00;;;29.90;99.90;;;;;;5037396;28;20568;-86
2022/08/15 11:13:54;;;;;;;8.95;4.95;;;30.00;99.90;;;;;;5053260;28;20213;-85
2022/08/15 11:16:31;;;;;;;9.35;4.88;;;30.10;99.90;;;;;;5057103;28;20249;-88
2022/08/15 11:18:59;;;;;;;6.97;4.47;;;29.90;99.90;;;;;;5056991;28;20257;-85
2022/08/15 11:21:38;;;;;;;7.78;4.22;;;29.70;99.90;;;;;;5056819;28;20206;-85
2022/08/15 11:24:07;;;;;;;8.48;4.22;;;29.40;99.90;;;;;;5056105;28;20745;-86
2022/08/15 11:26:36;;;;;;;7.22;4.60;;;29.10;99.90;;;;;;5056088;28;20194;-81
2022/08/15 11:29:19;;;;;;;7.85;4.60;;;29.20;99.90;;;;;;5057180;28;20195;-83
2022/08/15 11:31:49;;;;;;;7.20;4.53;;;29.40;99.90;;;;;;5071623;28;20233;-84
2022/08/15 11:34:27;;;;;;;5.88;4.07;;;29.40;99.90;;;;;;5055801;28;20212;-86
2022/08/15 11:36:58;;;;;;;7.30;4.43;;;29.60;99.90;;;;;;5055872;28;20304;-83
2022/08/15 11:39:28;;;;;;;10.23;5.38;;;29.60;99.90;;;;;;5056332;28;20327;-86
2022/08/15 11:41:58;;;;;;;11.15;6.40;;;29.70;99.90;;;;;;5055604;28;20218;-86
2022/08/15 11:44:37;;;;;;;10.40;6.60;;;29.80;99.90;;;;;;5056286;28;20285;-83
2022/08/15 11:47:05;;;;;;;8.88;6.80;;;29.80;99.90;;;;;;5056749;28;20225;-86
2022/08/15 11:49:42;;;;;;;10.30;5.35;;;29.90;99.90;;;;;;5051024;28;20217;-86
2022/08/15 11:52:10;;;;;;;11.43;8.32;;;29.80;99.90;;;;;;5056213;28;20190;-85
2022/08/15 11:54:37;;;;;;;10.57;7.32;;;29.50;99.90;;;;;;5056152;28;20225;-87
2022/08/15 11:57:06;;;;;;;10.15;8.85;;;29.20;99.90;;;;;;5055425;28;20213;-86
2022/08/15 11:59:36;;;;;;;11.95;8.57;;;28.90;99.90;;;;;;5055337;28;20198;-85
2022/08/15 12:02:10;;;;;;;12.82;8.50;;;28.60;99.90;;;;;;5054250;28;20630;-85
2022/08/15 12:04:40;;;;;;;9.00;7.00;;;28.40;99.90;;;;;;5073675;23;20237;-85
2022/08/15 12:07:14;;;;;;;13.57;9.10;;;28.20;99.90;;;;;;5065109;28;20216;-87
2022/08/15 12:09:52;;;;;;;12.38;8.00;;;28.00;99.90;;;;;;5060455;28;20281;-87
2022/08/15 12:12:29;;;;;;;9.85;8.13;;;27.70;99.90;;;;;;5067152;28;20276;-85
2022/08/15 12:15:07;;;;;;;12.27;7.82;;;27.60;99.90;;;;;;5069894;28;20203;-85
2022/08/15 12:17:34;;;;;;;12.25;7.63;;;27.50;99.90;;;;;;5069628;28;20224;-85
2022/08/15 12:20:04;;;;;;;10.00;6.95;;;27.40;99.90;;;;;;5069945;28;20199;-85
2022/08/15 12:22:36;;;;;;;12.30;8.05;;;27.20;99.90;;;;;;5061111;28;20792;-83
2022/08/15 12:25:07;;;;;;;11.93;6.80;;;27.20;99.90;;;;;;5064810;28;20269;-86
2022/08/15 12:27:35;;;;;;;8.45;6.45;;;27.10;99.90;;;;;;5064622;28;20617;-83
2022/08/15 12:30:07;;;;;;;10.23;6.32;;;27.10;99.90;;;;;;5063946;28;20202;-85
2022/08/15 12:32:35;;;;;;;10.15;7.07;;;27.00;99.90;;;;;;5061465;28;20577;-84
2022/08/15 12:35:05;;;;;;;10.10;7.03;;;27.00;99.90;;;;;;5060067;28;20233;-83
2022/08/15 12:37:32;;;;;;;10.65;7.97;;;26.90;99.90;;;;;;5055679;28;20204;-86
2022/08/15 12:40:04;;;;;;;11.85;7.30;;;26.70;99.90;;;;;;5041806;28;20579;-84
2022/08/15 12:42:33;;;;;;;13.75;8.38;;;26.70;99.90;;;;;;5055587;28;20240;-84
2022/08/15 12:45:05;;;;;;;11.57;8.13;;;26.60;99.90;;;;;;5053648;28;20293;-83
2022/08/15 12:47:34;;;;;;;11.65;7.35;;;26.50;99.90;;;;;;5052663;28;20232;-81
2022/08/15 12:50:01;;;;;;;12.80;8.32;;;26.40;99.90;;;;;;5053439;28;20285;-82
2022/08/15 12:52:29;;;;;;;11.80;7.55;;;26.40;99.90;;;;;;5046224;28;20214;-82
2022/08/15 12:54:57;;;;;;;10.68;7.90;;;26.40;99.90;;;;;;5057851;28;20202;-87
2022/08/15 12:57:25;;;;;;;10.15;6.95;;;26.50;99.90;;;;;;5053948;28;20206;-86
2022/08/15 12:59:52;;;;;;;9.18;7.85;;;26.60;99.90;;;;;;5053994;28;20493;-84
2022/08/15 13:02:22;;;;;;;8.80;6.70;;;26.70;99.90;;;;;;5038548;28;20220;-83
2022/08/15 13:04:55;;;;;;;8.90;6.53;;;26.80;99.90;;;;;;5034735;28;20242;-85
2022/08/15 13:07:22;;;;;;;6.03;5.13;;;26.90;99.90;;;;;;5046336;28;20197;-85
2022/08/15 13:09:50;;;;;;;9.15;5.50;;;27.10;99.90;;;;;;5055400;28;20201;-85
2022/08/15 13:12:18;;;;;;;6.15;5.55;;;27.20;99.90;;;;;;5071197;22;20794;-83